Time;durP1;ratioP1;P1;durP2;ratioP2;P2;SDS_P1;SDS_P2;PMS_P1;PMS_P2;Temp;Humidity;BMP_temperature;BMP_pressure;BME280_temperature;BME280_humidity;BME280_pressure;Samples;Min_cycle;Max_cycle;Signal;HPM_P1;HPM_P2
2023/08/02 00:00:38;;;;;;;10.00;2.05;;;;;;;16.37;100.00;99967.41;5061317;28;20017;-77
2023/08/02 00:03:03;;;;;;;6.20;2.42;;;;;;;16.33;100.00;99975.97;5062256;28;20574;-77
2023/08/02 00:05:29;;;;;;;8.20;2.72;;;;;;;16.30;100.00;99974.03;5053872;28;20044;-76
2023/08/02 00:07:54;;;;;;;8.77;3.00;;;;;;;16.19;100.00;99970.66;5058308;28;20039;-76
2023/08/02 00:10:20;;;;;;;6.20;2.15;;;;;;;16.24;100.00;99973.75;5037904;28;20101;-77
2023/08/02 00:12:45;;;;;;;7.53;2.83;;;;;;;16.16;100.00;99969.50;5040719;22;20145;-86
2023/08/02 00:15:11;;;;;;;9.13;2.70;;;;;;;16.17;100.00;99968.28;5014768;28;20540;-87
2023/08/02 00:17:36;;;;;;;8.38;2.63;;;;;;;16.12;100.00;99962.34;5019659;28;20512;-86
2023/08/02 00:20:03;;;;;;;7.45;2.92;;;;;;;16.16;100.00;99963.06;5023224;28;20030;-86
2023/08/02 00:22:29;;;;;;;10.40;2.95;;;;;;;16.17;100.00;99964.66;5020130;28;20083;-87
2023/08/02 00:24:54;;;;;;;8.35;2.88;;;;;;;16.25;100.00;99949.13;5016853;28;20026;-86
2023/08/02 00:27:20;;;;;;;7.22;2.72;;;;;;;16.26;100.00;99942.25;5017940;28;20068;-86
2023/08/02 00:29:45;;;;;;;5.00;2.72;;;;;;;16.27;100.00;99941.00;5017403;28;20033;-86
2023/08/02 00:32:13;;;;;;;8.70;2.67;;;;;;;16.25;100.00;99937.84;5006600;28;20379;-87
2023/08/02 00:34:39;;;;;;;12.35;3.53;;;;;;;16.22;100.00;99933.06;5008035;28;20029;-86
2023/08/02 00:37:04;;;;;;;5.03;2.65;;;;;;;16.19;100.00;99929.13;5010239;28;20033;-86
2023/08/02 00:39:29;;;;;;;7.35;2.67;;;;;;;16.22;100.00;99918.97;5010131;28;20064;-86
2023/08/02 00:41:55;;;;;;;10.88;3.35;;;;;;;16.28;100.00;99930.53;5008704;28;20498;-87
2023/08/02 00:44:20;;;;;;;8.07;3.00;;;;;;;16.26;100.00;99939.44;5012053;28;20022;-87
2023/08/02 00:46:46;;;;;;;9.13;2.92;;;;;;;16.22;100.00;99939.50;5009246;28;20027;-87
2023/08/02 00:49:11;;;;;;;9.38;3.10;;;;;;;16.20;100.00;99936.34;5004922;28;20041;-86
2023/08/02 00:51:37;;;;;;;7.95;2.75;;;;;;;16.26;100.00;99934.56;5006921;28;20030;-87
2023/08/02 00:54:03;;;;;;;6.72;2.72;;;;;;;16.32;100.00;99937.69;5008106;28;20152;-86
2023/08/02 00:56:31;;;;;;;10.27;3.13;;;;;;;16.20;100.00;99929.91;5011136;28;20417;-86
2023/08/02 00:58:56;;;;;;;10.43;2.67;;;;;;;16.23;100.00;99923.34;5010401;28;20052;-87
2023/08/02 01:01:22;;;;;;;12.02;3.42;;;;;;;16.19;100.00;99917.81;5005679;28;20034;-87
2023/08/02 01:03:48;;;;;;;6.82;2.50;;;;;;;16.20;100.00;99912.97;5007288;28;20026;-86
2023/08/02 01:06:25;;;;;;;10.63;2.88;;;;;;;16.23;100.00;99926.19;5006066;28;20057;-87
2023/08/02 01:09:01;;;;;;;8.48;3.17;;;;;;;16.23;100.00;99929.00;4990128;28;20344;-87
2023/08/02 01:11:51;;;;;;;9.23;2.97;;;;;;;16.17;100.00;99931.59;4995519;28;20107;-87
2023/08/02 01:14:21;;;;;;;8.10;3.90;;;;;;;16.14;100.00;99926.00;4982713;28;20043;-87
2023/08/02 01:16:49;;;;;;;10.07;2.58;;;;;;;16.08;100.00;99910.81;4990478;28;20026;-87
2023/08/02 01:19:20;;;;;;;7.70;2.88;;;;;;;15.97;100.00;99909.03;4981830;28;20480;-87
2023/08/02 01:21:46;;;;;;;9.18;2.88;;;;;;;16.07;100.00;99910.03;4988269;28;20030;-87
2023/08/02 01:24:11;;;;;;;10.20;2.75;;;;;;;16.17;100.00;99914.66;4990547;28;20030;-87
2023/08/02 01:26:40;;;;;;;12.75;3.53;;;;;;;16.11;100.00;99904.31;4987773;28;20581;-87
2023/08/02 01:29:08;;;;;;;13.35;3.60;;;;;;;16.13;100.00;99913.13;4989524;28;20027;-87
2023/08/02 01:31:34;;;;;;;14.85;3.58;;;;;;;16.11;100.00;99905.09;4985023;28;20022;-87
2023/08/02 01:34:00;;;;;;;9.90;3.70;;;;;;;16.13;100.00;99907.47;4993796;28;20051;-87
2023/08/02 01:36:25;;;;;;;7.28;2.95;;;;;;;16.13;100.00;99890.53;4988816;28;20056;-87
2023/08/02 01:38:52;;;;;;;10.20;2.70;;;;;;;16.00;100.00;99894.06;4987353;28;20475;-87
2023/08/02 01:41:17;;;;;;;10.73;3.45;;;;;;;15.94;100.00;99884.53;4988758;28;20025;-87
2023/08/02 01:43:42;;;;;;;7.43;3.40;;;;;;;15.96;100.00;99872.78;4981430;28;20415;-86
2023/08/02 01:46:08;;;;;;;8.23;3.60;;;;;;;16.01;100.00;99884.34;4985302;28;20033;-87
2023/08/02 01:48:33;;;;;;;5.55;2.78;;;;;;;15.92;100.00;99886.22;4983194;28;20113;-87
2023/08/02 01:50:59;;;;;;;11.18;3.30;;;;;;;15.78;100.00;99887.31;4977828;28;20106;-87
2023/08/02 01:53:24;;;;;;;15.63;3.55;;;;;;;15.79;100.00;99880.44;4981388;28;20475;-87
2023/08/02 01:55:50;;;;;;;5.93;3.63;;;;;;;15.82;100.00;99868.28;4979320;28;20110;-87
2023/08/02 01:58:15;;;;;;;8.70;3.33;;;;;;;15.90;100.00;99872.53;4980356;28;20033;-86
2023/08/02 02:00:41;;;;;;;9.90;3.85;;;;;;;15.86;100.00;99871.81;4986105;28;20034;-87
2023/08/02 02:03:06;;;;;;;11.40;4.00;;;;;;;15.74;100.00;99861.22;4986946;28;20029;-86
2023/08/02 02:05:32;;;;;;;11.27;3.75;;;;;;;15.80;100.00;99859.47;4986977;28;20023;-87
2023/08/02 02:07:57;;;;;;;9.43;4.28;;;;;;;15.63;100.00;99859.41;4986522;28;20026;-86
2023/08/02 02:10:23;;;;;;;8.13;3.28;;;;;;;15.64;100.00;99849.72;4982236;28;20578;-87
2023/08/02 02:12:48;;;;;;;9.98;2.97;;;;;;;15.55;100.00;99843.88;4977493;28;20046;-86
2023/08/02 02:15:13;;;;;;;11.70;3.47;;;;;;;15.62;100.00;99838.09;4988077;28;20436;-86
2023/08/02 02:17:39;;;;;;;10.35;3.63;;;;;;;15.73;100.00;99835.03;4988236;28;20033;-86
2023/08/02 02:20:06;;;;;;;8.65;3.33;;;;;;;15.29;100.00;99827.97;4986735;28;20034;-86
2023/08/02 02:22:32;;;;;;;9.05;4.18;;;;;;;15.50;100.00;99813.38;4986239;28;20022;-86
2023/08/02 02:24:57;;;;;;;11.75;3.28;;;;;;;15.28;100.00;99817.91;4981572;28;20586;-86
2023/08/02 02:27:22;;;;;;;10.15;3.85;;;;;;;15.50;100.00;99813.38;4985125;28;20026;-86
2023/08/02 02:29:48;;;;;;;9.50;3.67;;;;;;;15.61;100.00;99799.03;4976766;28;20054;-86
2023/08/02 02:32:13;;;;;;;5.25;3.10;;;;;;;15.61;100.00;99802.63;4985801;28;20034;-86
2023/08/02 02:34:38;;;;;;;8.15;3.63;;;;;;;15.60;100.00;99791.78;4978408;28;20402;-87
2023/08/02 02:37:04;;;;;;;11.90;3.95;;;;;;;15.57;100.00;99793.47;4982034;28;20069;-86
2023/08/02 02:39:30;;;;;;;7.80;4.18;;;;;;;15.33;100.00;99783.56;4983148;28;20042;-87
2023/08/02 02:41:55;;;;;;;12.70;3.55;;;;;;;15.39;100.00;99776.16;4987365;28;20530;-86
2023/08/02 02:44:21;;;;;;;8.43;4.22;;;;;;;15.32;100.00;99777.13;4988793;28;20427;-87
2023/08/02 02:46:46;;;;;;;8.55;4.97;;;;;;;15.33;100.00;99769.47;4982088;28;20104;-87
2023/08/02 02:49:11;;;;;;;9.52;3.10;;;;;;;15.36;100.00;99777.03;4981439;28;20026;-87
2023/08/02 02:51:37;;;;;;;7.43;3.95;;;;;;;15.40;100.00;99750.34;5004588;28;20023;-87
2023/08/02 02:54:02;;;;;;;8.55;4.03;;;;;;;15.27;100.00;99754.31;4987782;28;20084;-86
2023/08/02 02:56:27;;;;;;;6.18;3.53;;;;;;;15.43;100.00;99751.50;4984383;28;20026;-87
2023/08/02 02:58:53;;;;;;;5.78;3.10;;;;;;;15.37;100.00;99750.44;4988331;28;20030;-87
2023/08/02 03:01:18;;;;;;;5.93;3.67;;;;;;;15.24;100.00;99756.78;4982137;28;20391;-87
2023/08/02 03:03:44;;;;;;;10.23;4.15;;;;;;;15.16;100.00;99751.72;4986970;28;20030;-87
2023/08/02 03:06:09;;;;;;;11.57;3.70;;;;;;;15.32;100.00;99765.06;4984142;28;20026;-87
2023/08/02 03:08:34;;;;;;;14.95;3.60;;;;;;;15.16;100.00;99758.16;4982864;28;20030;-87
2023/08/02 03:11:00;;;;;;;9.57;4.13;;;;;;;15.11;100.00;99744.56;4992574;28;20019;-87
2023/08/02 03:13:25;;;;;;;10.35;3.97;;;;;;;15.04;100.00;99745.53;4980428;28;20587;-87
2023/08/02 03:15:51;;;;;;;13.40;4.63;;;;;;;15.06;100.00;99736.63;4982851;28;20184;-87
2023/08/02 03:18:16;;;;;;;6.93;3.72;;;;;;;15.18;100.00;99727.50;4977200;28;20030;-87
2023/08/02 03:20:42;;;;;;;9.27;4.60;;;;;;;15.22;100.00;99724.59;4985287;28;20030;-87
2023/08/02 03:23:08;;;;;;;7.68;3.10;;;;;;;15.23;100.00;99729.78;4981775;28;20056;-87
2023/08/02 03:25:34;;;;;;;9.98;3.95;;;;;;;15.07;100.00;99718.47;4986839;28;20109;-87
2023/08/02 03:28:00;;;;;;;12.57;4.88;;;;;;;14.91;100.00;99715.66;4978253;28;20104;-87
2023/08/02 03:30:25;;;;;;;10.75;3.47;;;;;;;14.97;100.00;99722.38;4984795;28;20030;-87
2023/08/02 03:32:51;;;;;;;13.93;4.22;;;;;;;14.95;100.00;99713.56;4991594;28;20095;-87
2023/08/02 03:35:16;;;;;;;6.85;4.00;;;;;;;14.96;100.00;99709.50;4986102;28;20099;-87
2023/08/02 03:37:41;;;;;;;11.95;4.28;;;;;;;15.04;100.00;99708.88;4986476;28;20030;-87
2023/08/02 03:40:07;;;;;;;7.25;3.55;;;;;;;15.16;100.00;99710.25;4984833;28;20018;-87
2023/08/02 03:42:33;;;;;;;6.53;3.05;;;;;;;15.14;100.00;99709.88;4983702;28;20537;-87
2023/08/02 03:44:58;;;;;;;8.85;3.17;;;;;;;15.18;100.00;99702.13;4986707;28;20030;-87
2023/08/02 03:47:23;;;;;;;11.10;4.40;;;;;;;14.94;100.00;99689.41;4987334;28;20034;-87
2023/08/02 03:49:49;;;;;;;11.57;3.90;;;;;;;15.18;100.00;99696.50;4981423;28;20026;-87
2023/08/02 03:52:14;;;;;;;9.63;4.22;;;;;;;15.25;100.00;99682.22;4980199;28;21643;-87
2023/08/02 03:54:40;;;;;;;8.57;4.47;;;;;;;15.11;100.00;99695.88;4979157;28;20486;-88
2023/08/02 03:57:07;;;;;;;11.38;4.65;;;;;;;15.18;100.00;99685.22;4984701;28;20101;-87
2023/08/02 03:59:32;;;;;;;9.30;4.72;;;;;;;15.19;100.00;99669.88;4978190;28;20049;-87
2023/08/02 04:01:57;;;;;;;17.77;5.63;;;;;;;15.12;100.00;99669.28;4982635;28;20026;-88
2023/08/02 04:04:23;;;;;;;7.40;4.18;;;;;;;15.01;100.00;99669.50;4981944;28;20019;-87
2023/08/02 04:06:48;;;;;;;9.02;3.72;;;;;;;15.10;100.00;99664.06;4980440;28;20144;-87
2023/08/02 04:09:13;;;;;;;7.68;3.67;;;;;;;14.99;100.00;99666.38;4988543;28;20073;-87
2023/08/02 04:11:39;;;;;;;9.02;4.30;;;;;;;15.11;100.00;99676.91;4989945;28;20023;-87
2023/08/02 04:14:04;;;;;;;9.52;3.70;;;;;;;15.08;100.00;99666.53;4986153;28;20042;-87
2023/08/02 04:16:30;;;;;;;10.35;3.80;;;;;;;15.18;100.00;99664.72;4977411;28;20034;-87
2023/08/02 04:18:55;;;;;;;6.43;3.42;;;;;;;15.01;100.00;99661.06;4989831;28;20027;-87
2023/08/02 04:21:20;;;;;;;8.40;3.88;;;;;;;15.14;100.00;99650.69;4991928;28;20021;-87
2023/08/02 04:23:49;;;;;;;10.48;3.78;;;;;;;15.25;100.00;99642.75;4987937;28;20030;-87
2023/08/02 04:26:15;;;;;;;7.95;3.25;;;;;;;15.22;100.00;99629.56;4995507;28;20485;-87
2023/08/02 04:28:40;;;;;;;7.43;3.80;;;;;;;15.25;100.00;99625.84;4988844;28;20050;-87
2023/08/02 04:31:05;;;;;;;9.15;3.80;;;;;;;15.16;100.00;99622.88;4997287;28;20026;-87
2023/08/02 04:33:31;;;;;;;11.48;4.65;;;;;;;15.07;100.00;99619.06;4988236;28;20814;-87
2023/08/02 04:36:00;;;;;;;5.38;3.08;;;;;;;15.04;100.00;99617.94;4988458;28;20125;-87
2023/08/02 04:38:26;;;;;;;9.65;4.63;;;;;;;14.89;100.00;99603.38;4981015;28;20030;-87
2023/08/02 04:40:52;;;;;;;6.90;3.15;;;;;;;15.11;100.00;99597.22;4983851;28;20034;-88
2023/08/02 04:43:17;;;;;;;7.22;4.57;;;;;;;15.21;100.00;99594.13;4980051;28;20497;-88
2023/08/02 04:45:43;;;;;;;13.75;3.63;;;;;;;15.15;100.00;99584.63;4990398;28;20522;-87
2023/08/02 04:48:09;;;;;;;7.10;3.53;;;;;;;15.23;100.00;99594.50;4988978;28;20034;-88
2023/08/02 04:50:34;;;;;;;7.60;3.85;;;;;;;15.12;100.00;99579.09;4981572;28;20084;-87
2023/08/02 04:53:00;;;;;;;10.38;4.55;;;;;;;15.19;100.00;99582.50;4991866;28;20364;-88
2023/08/02 04:55:26;;;;;;;12.00;4.38;;;;;;;15.15;100.00;99581.03;4987608;28;20113;-87
2023/08/02 04:57:51;;;;;;;12.73;4.28;;;;;;;15.16;100.00;99585.44;4994707;28;20470;-88
2023/08/02 05:00:16;;;;;;;13.88;3.80;;;;;;;15.22;100.00;99570.38;4986578;28;20392;-88
2023/08/02 05:02:42;;;;;;;8.63;4.43;;;;;;;15.02;100.00;99561.22;4989331;28;20539;-88
2023/08/02 05:05:08;;;;;;;9.55;3.92;;;;;;;15.14;100.00;99566.16;4990739;28;20030;-88
2023/08/02 05:07:34;;;;;;;13.23;5.45;;;;;;;14.92;100.00;99534.09;4984528;28;20545;-87
2023/08/02 05:10:03;;;;;;;10.82;4.65;;;;;;;15.16;100.00;99566.50;4988624;28;20041;-87
2023/08/02 05:12:39;;;;;;;8.23;3.78;;;;;;;15.22;100.00;99552.63;4988368;28;20045;-88
2023/08/02 05:15:06;;;;;;;11.30;3.67;;;;;;;15.11;100.00;99541.66;4988646;28;20034;-88
2023/08/02 05:17:31;;;;;;;13.35;5.10;;;;;;;14.93;100.00;99530.06;4988970;28;20026;-88
2023/08/02 05:19:57;;;;;;;10.52;4.13;;;;;;;15.05;100.00;99532.13;4989291;28;20536;-88
2023/08/02 05:22:23;;;;;;;7.93;4.20;;;;;;;15.01;100.00;99518.16;4991268;28;20038;-87
2023/08/02 05:24:52;;;;;;;9.00;4.57;;;;;;;15.16;100.00;99515.75;4988524;28;20077;-88
2023/08/02 05:27:17;;;;;;;11.15;5.35;;;;;;;15.23;100.00;99511.97;4989182;28;20029;-87
2023/08/02 05:29:43;;;;;;;6.22;3.85;;;;;;;15.28;100.00;99511.41;4987742;28;20406;-87
2023/08/02 05:32:08;;;;;;;5.05;4.03;;;;;;;15.10;100.00;99502.66;4987765;28;20034;-88
2023/08/02 05:34:33;;;;;;;7.78;4.22;;;;;;;15.13;100.00;99498.94;4985076;28;20270;-87
2023/08/02 05:36:59;;;;;;;12.38;5.00;;;;;;;15.08;100.00;99494.63;4986930;28;20125;-87
2023/08/02 05:39:24;;;;;;;6.32;3.58;;;;;;;15.00;100.00;99481.97;4984681;28;20399;-87
2023/08/02 05:41:49;;;;;;;9.20;4.38;;;;;;;15.23;100.00;99487.38;4988302;28;20030;-87
2023/08/02 05:44:15;;;;;;;8.02;4.10;;;;;;;15.27;100.00;99475.22;4981825;28;20042;-87
2023/08/02 05:46:40;;;;;;;9.00;3.97;;;;;;;15.24;100.00;99476.88;4985157;28;20434;-88
2023/08/02 05:49:06;;;;;;;7.47;4.18;;;;;;;15.21;100.00;99467.28;4981672;28;20026;-87
2023/08/02 05:51:31;;;;;;;8.35;4.15;;;;;;;15.08;100.00;99463.63;4985274;28;20391;-87
2023/08/02 05:53:56;;;;;;;10.52;4.25;;;;;;;15.24;100.00;99460.78;4982656;28;20083;-88
2023/08/02 05:56:22;;;;;;;7.30;3.83;;;;;;;15.23;100.00;99450.72;4984790;28;20596;-87
2023/08/02 05:58:47;;;;;;;8.90;3.85;;;;;;;15.18;100.00;99442.03;4983361;28;20027;-88
2023/08/02 06:01:13;;;;;;;6.43;3.38;;;;;;;15.10;100.00;99413.25;4984745;28;20035;-87
2023/08/02 06:03:38;;;;;;;9.20;4.78;;;;;;;15.08;100.00;99424.19;4988184;28;20022;-87
2023/08/02 06:06:03;;;;;;;8.43;3.42;;;;;;;15.11;100.00;99420.47;4990139;28;20040;-87
2023/08/02 06:08:29;;;;;;;8.27;3.95;;;;;;;15.02;100.00;99426.75;4984251;28;20029;-88
2023/08/02 06:10:54;;;;;;;15.10;4.15;;;;;;;15.11;100.00;99433.78;4984834;28;20030;-88
2023/08/02 06:13:19;;;;;;;6.00;3.80;;;;;;;15.24;100.00;99434.59;4988511;28;20095;-88
2023/08/02 06:15:45;;;;;;;11.00;3.40;;;;;;;15.30;100.00;99420.75;4989282;28;20034;-87
2023/08/02 06:18:10;;;;;;;6.85;3.50;;;;;;;15.32;100.00;99421.13;4987402;28;20390;-88
2023/08/02 06:20:36;;;;;;;9.40;3.22;;;;;;;15.17;100.00;99404.59;4987674;28;20022;-88
2023/08/02 06:23:01;;;;;;;6.97;3.45;;;;;;;15.26;100.00;99412.41;4988183;28;20121;-88
2023/08/02 06:25:27;;;;;;;11.43;3.83;;;;;;;15.22;100.00;99404.06;4989600;28;20030;-88
2023/08/02 06:27:52;;;;;;;11.63;3.83;;;;;;;15.32;100.00;99399.34;4987602;28;20426;-88
2023/08/02 06:30:18;;;;;;;10.57;3.63;;;;;;;15.35;100.00;99408.97;4987219;28;20027;-88
2023/08/02 06:32:43;;;;;;;9.43;3.53;;;;;;;15.32;100.00;99399.34;4991630;28;20479;-88
2023/08/02 06:35:09;;;;;;;6.07;2.90;;;;;;;15.38;100.00;99399.59;4987397;28;20109;-88
2023/08/02 06:37:35;;;;;;;6.10;3.35;;;;;;;15.27;100.00;99385.03;4989509;28;20394;-88
2023/08/02 06:40:01;;;;;;;7.80;4.03;;;;;;;15.19;100.00;99367.50;4980601;28;20027;-87
2023/08/02 06:42:26;;;;;;;7.13;3.38;;;;;;;15.20;100.00;99369.91;4995449;28;20137;-88
2023/08/02 06:44:52;;;;;;;7.53;3.80;;;;;;;15.37;100.00;99379.06;5000926;28;20493;-88
2023/08/02 06:47:17;;;;;;;7.53;3.50;;;;;;;15.39;100.00;99382.25;4981775;28;20030;-87
2023/08/02 06:49:42;;;;;;;9.25;3.40;;;;;;;15.31;100.00;99363.94;4981535;28;20045;-87
2023/08/02 06:52:09;;;;;;;7.72;3.38;;;;;;;15.42;100.00;99366.44;4978656;28;20380;-88
2023/08/02 06:54:34;;;;;;;6.20;3.47;;;;;;;15.47;100.00;99371.53;4980828;28;20038;-88
2023/08/02 06:57:00;;;;;;;7.15;3.28;;;;;;;15.28;100.00;99344.31;4981568;28;20033;-87
2023/08/02 06:59:25;;;;;;;13.88;3.63;;;;;;;15.27;100.00;99356.84;4981397;28;20372;-86
2023/08/02 07:01:50;;;;;;;6.90;2.88;;;;;;;15.37;100.00;99352.91;4978696;28;20063;-86
2023/08/02 07:04:16;;;;;;;10.93;3.15;;;;;;;15.39;100.00;99344.78;4977482;28;20037;-86
2023/08/02 07:06:41;;;;;;;5.50;2.67;;;;;;;15.42;100.00;99353.13;4976571;28;20030;-86
2023/08/02 07:09:07;;;;;;;8.40;2.95;;;;;;;15.46;100.00;99347.41;4989546;28;20034;-86
2023/08/02 07:11:32;;;;;;;5.90;3.20;;;;;;;15.43;100.00;99332.19;4980834;28;20474;-86
2023/08/02 07:13:57;;;;;;;4.47;2.83;;;;;;;15.48;100.00;99330.81;4980242;28;20129;-84
2023/08/02 07:16:23;;;;;;;7.57;3.10;;;;;;;15.39;100.00;99331.50;4983518;28;20031;-83
2023/08/02 07:18:48;;;;;;;6.60;3.17;;;;;;;15.24;100.00;99319.03;5001689;28;20065;-85
2023/08/02 07:21:14;;;;;;;7.40;3.17;;;;;;;15.32;100.00;99323.22;4986061;28;20472;-84
2023/08/02 07:23:39;;;;;;;9.18;3.72;;;;;;;15.36;100.00;99317.50;4987149;28;20030;-84
2023/08/02 07:26:05;;;;;;;5.70;3.40;;;;;;;15.40;100.00;99307.69;4984887;28;20078;-84
2023/08/02 07:28:31;;;;;;;11.93;3.80;;;;;;;15.43;100.00;99308.81;4978170;28;20054;-84
2023/08/02 07:31:11;;;;;;;7.80;3.25;;;;;;;15.42;100.00;99301.59;4984371;28;20034;-84
2023/08/02 07:33:36;;;;;;;6.97;3.35;;;;;;;15.31;100.00;99296.28;4975022;28;20121;-84
2023/08/02 07:36:03;;;;;;;7.57;2.72;;;;;;;15.25;100.00;99287.59;4985566;28;20129;-84
2023/08/02 07:38:28;;;;;;;7.32;3.40;;;;;;;15.30;100.00;99277.78;4985778;28;20537;-83
2023/08/02 07:40:54;;;;;;;8.05;3.53;;;;;;;15.29;100.00;99264.16;4984022;28;20026;-83
2023/08/02 07:43:19;;;;;;;3.85;2.33;;;;;;;15.46;100.00;99257.16;4990107;28;20022;-84
2023/08/02 07:45:45;;;;;;;8.77;3.03;;;;;;;15.37;100.00;99248.59;4986129;28;20065;-84
2023/08/02 07:48:10;;;;;;;6.63;2.95;;;;;;;15.53;100.00;99240.00;4996441;28;20037;-84
2023/08/02 07:50:36;;;;;;;4.93;2.97;;;;;;;15.52;100.00;99230.00;4981726;28;20072;-85
2023/08/02 07:53:02;;;;;;;6.18;3.33;;;;;;;15.50;100.00;99221.19;4991558;28;20046;-86
2023/08/02 07:55:27;;;;;;;7.60;3.05;;;;;;;15.51;100.00;99217.13;5006866;28;20035;-86
2023/08/02 07:57:53;;;;;;;8.15;3.60;;;;;;;15.59;100.00;99207.19;4992096;28;20034;-86
2023/08/02 08:00:18;;;;;;;6.85;4.25;;;;;;;15.63;100.00;99204.25;4988491;28;20430;-86
2023/08/02 08:02:44;;;;;;;5.85;3.08;;;;;;;15.60;100.00;99200.31;4990225;28;20037;-86
2023/08/02 08:05:09;;;;;;;10.25;3.13;;;;;;;15.71;100.00;99190.72;4990669;28;20538;-86
2023/08/02 08:07:35;;;;;;;7.88;2.97;;;;;;;15.76;100.00;99184.50;4991840;28;20030;-86
2023/08/02 08:10:00;;;;;;;8.38;4.25;;;;;;;15.78;100.00;99176.38;4990522;28;20015;-86
2023/08/02 08:12:26;;;;;;;6.60;4.22;;;;;;;15.64;100.00;99177.63;4985866;28;20026;-85
2023/08/02 08:14:51;;;;;;;7.82;4.15;;;;;;;15.57;100.00;99167.38;4989526;28;20034;-85
2023/08/02 08:17:17;;;;;;;8.32;4.30;;;;;;;15.57;100.00;99150.44;4991422;28;20037;-86
2023/08/02 08:19:45;;;;;;;9.18;4.82;;;;;;;15.62;100.00;99161.16;4990297;28;20026;-86
2023/08/02 08:22:11;;;;;;;8.02;4.50;;;;;;;15.65;100.00;99146.13;4990828;28;20026;-85
2023/08/02 08:24:36;;;;;;;7.72;4.53;;;;;;;15.62;100.00;99155.53;4987518;28;20545;-86
2023/08/02 08:27:02;;;;;;;7.50;4.82;;;;;;;15.65;100.00;99157.44;4990128;28;20026;-86
2023/08/02 08:29:28;;;;;;;6.95;4.10;;;;;;;15.62;100.00;99151.91;4988068;28;20049;-86
2023/08/02 08:31:53;;;;;;;8.98;4.43;;;;;;;15.57;100.00;99155.31;4990601;28;20387;-85
2023/08/02 08:34:19;;;;;;;12.50;5.30;;;;;;;15.58;100.00;99152.03;4986617;28;20054;-86
2023/08/02 08:36:45;;;;;;;8.90;5.15;;;;;;;15.61;100.00;99134.19;4986797;28;20041;-85
2023/08/02 08:39:10;;;;;;;10.70;5.63;;;;;;;15.60;100.00;99110.06;4989375;28;20034;-84
2023/08/02 08:41:36;;;;;;;15.10;6.00;;;;;;;15.65;100.00;99112.28;4991518;28;20033;-83
2023/08/02 08:44:02;;;;;;;8.55;5.38;;;;;;;15.62;100.00;99099.13;4986435;28;20046;-84
2023/08/02 08:46:31;;;;;;;9.60;5.57;;;;;;;15.67;100.00;99097.75;4989397;28;20421;-85
2023/08/02 08:49:00;;;;;;;10.82;6.20;;;;;;;15.58;100.00;99087.19;4988284;28;20109;-86
2023/08/02 08:51:27;;;;;;;9.15;5.30;;;;;;;15.67;100.00;99080.03;4989983;28;20024;-85
2023/08/02 08:53:54;;;;;;;9.88;5.55;;;;;;;15.73;100.00;99076.22;4990960;28;20029;-86
2023/08/02 08:56:24;;;;;;;7.72;5.45;;;;;;;15.68;100.00;99075.97;4993803;28;20036;-86
2023/08/02 08:58:52;;;;;;;8.15;5.68;;;;;;;15.69;100.00;99057.81;4989901;28;20026;-87
2023/08/02 09:01:18;;;;;;;8.15;4.93;;;;;;;15.80;100.00;99066.69;4988354;28;20033;-87
2023/08/02 09:03:45;;;;;;;8.45;5.70;;;;;;;15.73;100.00;99038.75;4987038;28;20026;-87
2023/08/02 09:06:12;;;;;;;8.07;5.28;;;;;;;15.80;100.00;99052.59;4989695;28;20026;-87
2023/08/02 09:08:43;;;;;;;10.52;5.82;;;;;;;15.87;100.00;99046.69;4986818;28;20092;-87
2023/08/02 09:11:09;;;;;;;6.95;5.13;;;;;;;15.94;100.00;99045.63;4991426;28;20053;-86
2023/08/02 09:13:35;;;;;;;8.32;6.07;;;;;;;15.93;100.00;99033.56;4980292;28;20057;-85
2023/08/02 09:16:03;;;;;;;10.63;5.30;;;;;;;15.98;100.00;99032.97;4991470;28;20026;-86
2023/08/02 09:18:36;;;;;;;6.72;5.10;;;;;;;15.95;100.00;99028.25;4984146;28;20038;-86
2023/08/02 09:21:03;;;;;;;6.03;4.78;;;;;;;15.88;100.00;99010.81;4984327;28;20061;-86
2023/08/02 09:23:28;;;;;;;6.55;4.38;;;;;;;15.92;100.00;99000.97;4988793;28;20431;-85
2023/08/02 09:26:09;;;;;;;6.78;4.53;;;;;;;15.92;100.00;99006.59;4980680;28;20117;-85
2023/08/02 09:28:35;;;;;;;6.05;4.95;;;;;;;15.97;100.00;99008.03;4987197;28;20042;-85
2023/08/02 09:31:18;;;;;;;5.93;4.82;;;;;;;15.95;100.00;98997.22;4986111;28;20142;-85
2023/08/02 09:33:49;;;;;;;5.45;4.60;;;;;;;16.02;100.00;98996.97;4980201;28;20585;-84
2023/08/02 09:36:25;;;;;;;8.48;3.33;;;;;;;16.03;100.00;98990.03;4977244;28;20439;-84
2023/08/02 09:39:10;;;;;;;4.43;3.75;;;;;;;16.03;100.00;98990.03;4976527;28;20066;-84
2023/08/02 09:41:36;;;;;;;4.63;3.28;;;;;;;16.04;100.00;98991.63;4981351;28;20275;-84
2023/08/02 09:44:02;;;;;;;4.00;3.35;;;;;;;16.01;100.00;98986.91;4986525;28;20033;-84
2023/08/02 09:46:36;;;;;;;6.43;3.28;;;;;;;16.09;100.00;98986.66;4991762;28;20076;-84
2023/08/02 09:49:17;;;;;;;4.13;3.10;;;;;;;16.11;100.00;98979.28;4987243;28;20041;-86
2023/08/02 09:51:44;;;;;;;3.63;3.30;;;;;;;16.13;100.00;98970.34;4988876;28;20391;-86
2023/08/02 09:54:10;;;;;;;3.40;3.08;;;;;;;16.25;100.00;98961.00;4977617;28;20050;-85
2023/08/02 09:56:38;;;;;;;4.68;3.35;;;;;;;16.34;100.00;98969.50;4989084;28;20030;-85
2023/08/02 09:59:05;;;;;;;4.53;2.83;;;;;;;16.38;100.00;98963.69;4988482;28;20030;-87
2023/08/02 10:01:32;;;;;;;4.80;4.22;;;;;;;16.41;100.00;98969.22;4988076;28;20034;-86
2023/08/02 10:03:59;;;;;;;3.58;3.13;;;;;;;16.47;100.00;98960.94;4986910;28;20344;-86
2023/08/02 10:06:29;;;;;;;3.90;3.20;;;;;;;16.58;100.00;98957.66;4987879;28;20538;-87
2023/08/02 10:09:04;;;;;;;6.00;3.50;;;;;;;16.50;100.00;98950.75;4987093;28;20498;-87
2023/08/02 10:11:33;;;;;;;3.45;2.72;;;;;;;16.51;100.00;98949.47;4976916;28;20486;-86
2023/08/02 10:14:00;;;;;;;3.63;2.70;;;;;;;16.53;100.00;98952.63;4977236;28;20721;-87
2023/08/02 10:16:26;;;;;;;5.00;2.92;;;;;;;16.57;100.00;98947.59;4986207;28;20023;-87
2023/08/02 10:18:52;;;;;;;4.53;3.00;;;;;;;16.59;100.00;98962.06;4979353;28;20039;-87
2023/08/02 10:21:19;;;;;;;4.13;3.35;;;;;;;16.72;100.00;98954.25;4987465;28;20081;-87
2023/08/02 10:23:45;;;;;;;3.28;2.88;;;;;;;16.78;100.00;98952.41;4973766;28;20376;-87
2023/08/02 10:26:11;;;;;;;5.63;3.33;;;;;;;16.88;100.00;98943.97;4976173;28;20030;-87
2023/08/02 10:28:37;;;;;;;4.13;3.10;;;;;;;16.82;100.00;98947.41;4986033;28;20590;-88
2023/08/02 10:31:07;;;;;;;3.88;3.40;;;;;;;16.73;100.00;98944.53;4984996;28;20499;-88
2023/08/02 10:33:32;;;;;;;3.55;3.17;;;;;;;16.71;100.00;98935.72;4979821;28;20507;-88
2023/08/02 10:36:03;;;;;;;3.95;3.13;;;;;;;16.72;100.00;98928.84;4989176;28;20342;-88
2023/08/02 10:38:47;;;;;;;4.53;4.10;;;;;;;16.99;100.00;98930.16;4991142;28;20069;-89
2023/08/02 10:41:16;;;;;;;4.97;3.95;;;;;;;17.06;100.00;98927.03;4982888;28;20089;-89
2023/08/02 10:43:51;;;;;;;4.47;4.03;;;;;;;17.04;100.00;98924.66;4984681;28;20026;-88
2023/08/02 10:46:22;;;;;;;6.10;3.70;;;;;;;17.14;100.00;98921.84;4985318;28;20041;-89
2023/08/02 10:48:48;;;;;;;3.85;3.40;;;;;;;17.15;100.00;98912.88;4988017;28;20026;-88
2023/08/02 10:51:41;;;;;;;3.58;3.28;;;;;;;17.31;100.00;98903.31;4984620;28;20072;-89
2023/08/02 10:54:22;;;;;;;4.32;3.53;;;;;;;17.58;100.00;98905.31;4988112;28;20041;-89
2023/08/02 10:56:53;;;;;;;4.03;3.30;;;;;;;17.67;100.00;98902.47;4983805;28;20037;-88
2023/08/02 10:59:24;;;;;;;3.53;3.20;;;;;;;17.67;100.00;98896.81;4987800;28;20022;-88
2023/08/02 11:01:58;;;;;;;4.05;3.13;;;;;;;17.81;100.00;98888.91;4983095;28;20027;-88
2023/08/02 11:04:25;;;;;;;4.45;3.42;;;;;;;17.97;100.00;98882.91;4988812;28;20027;-88
2023/08/02 11:06:50;;;;;;;5.32;3.50;;;;;;;18.14;100.00;98882.53;4984930;28;20068;-88
2023/08/02 11:09:16;;;;;;;4.88;3.72;;;;;;;18.23;100.00;98874.00;4982665;28;20054;-88
2023/08/02 11:11:41;;;;;;;3.95;3.08;;;;;;;18.40;100.00;98866.66;4990946;28;20026;-89
2023/08/02 11:14:07;;;;;;;3.85;3.33;;;;;;;18.49;100.00;98857.34;4989263;28;20042;-88
2023/08/02 11:16:41;;;;;;;3.88;3.30;;;;;;;18.73;100.00;98843.16;4988987;28;20030;-88
2023/08/02 11:19:10;;;;;;;6.05;3.45;;;;;;;19.09;100.00;98852.66;4987665;28;20037;-88
2023/08/02 11:21:36;;;;;;;4.28;3.38;;;;;;;19.17;100.00;98833.22;4987502;28;20026;-88